Time;durP1;ratioP1;P1;durP2;ratioP2;P2;SDS_P1;SDS_P2;PMS_P1;PMS_P2;Temp;Humidity;BMP_temperature;BMP_pressure;BME280_temperature;BME280_humidity;BME280_pressure;Samples;Min_cycle;Max_cycle;Signal;HPM_P1;HPM_P2
2023/04/18 00:01:37;;;;;;;8.95;4.88;;;10.50;99.90;;;10.53;95.04;101777.09;5144425;28;20035;-69
2023/04/18 00:04:08;;;;;;;;;;;10.50;99.90;;;10.50;94.72;101776.97;5145025;28;20049;-68
2023/04/18 00:06:41;;;;;;;8.35;5.13;;;10.40;99.90;;;10.47;94.84;101778.50;5144192;28;19922;-69
2023/04/18 00:09:13;;;;;;;7.00;4.38;;;10.40;99.90;;;10.44;94.99;101773.16;5143850;28;20050;-69
2023/04/18 00:11:46;;;;;;;8.05;4.82;;;10.40;99.90;;;10.42;94.91;101777.38;5144069;28;20043;-68
2023/04/18 00:14:18;;;;;;;8.93;5.22;;;10.30;99.90;;;10.38;95.14;101784.16;5144258;28;20047;-69
2023/04/18 00:16:52;;;;;;;9.38;5.50;;;10.30;99.90;;;10.34;95.16;101779.59;5152030;28;20105;-68
2023/04/18 00:19:25;;;;;;;9.40;5.22;;;10.30;99.90;;;10.31;95.00;101775.13;5142318;28;20050;-68
2023/04/18 00:21:58;;;;;;;8.35;5.00;;;10.30;99.90;;;10.27;95.38;101778.38;5142597;28;20404;-74
2023/04/18 00:24:30;;;;;;;9.10;4.70;;;10.20;99.90;;;10.24;95.67;101772.13;5143986;28;20118;-68
2023/04/18 00:27:04;;;;;;;8.57;5.20;;;10.20;99.90;;;10.20;95.77;101773.63;5142820;28;20039;-68
2023/04/18 00:29:37;;;;;;;10.00;5.30;;;10.10;99.90;;;10.16;95.56;101770.78;5149829;28;20415;-68
2023/04/18 00:32:09;;;;;;;10.05;5.82;;;10.10;99.90;;;10.13;95.54;101768.94;5143140;28;20038;-68
2023/04/18 00:34:41;;;;;;;10.73;5.88;;;10.10;99.90;;;10.12;95.62;101761.94;5143683;28;20484;-68
2023/04/18 00:37:13;;;;;;;11.25;6.10;;;10.10;99.90;;;10.09;95.66;101771.28;5142355;28;20050;-67
2023/04/18 00:39:47;;;;;;;8.35;4.90;;;10.10;99.90;;;10.06;95.52;101765.13;5141904;28;20531;-68
2023/04/18 00:42:20;;;;;;;10.50;5.10;;;10.10;99.90;;;10.03;95.16;101772.75;5143651;28;20383;-69
2023/04/18 00:44:53;;;;;;;12.50;6.32;;;10.00;99.90;;;10.00;95.56;101771.72;5142307;28;20046;-68
2023/04/18 00:47:25;;;;;;;12.38;6.28;;;10.00;99.90;;;9.95;95.45;101763.66;5142473;28;20078;-68
2023/04/18 00:49:58;;;;;;;13.88;6.85;;;10.00;99.90;;;9.93;95.30;101762.69;5141632;28;20058;-68
2023/04/18 00:52:32;;;;;;;12.93;6.82;;;9.90;99.90;;;9.91;95.25;101766.00;5141566;28;20093;-70
2023/04/18 00:55:08;;;;;;;11.65;6.32;;;9.90;99.90;;;9.89;95.17;101767.63;5151446;28;20043;-68
2023/04/18 00:57:42;;;;;;;13.13;6.30;;;9.90;99.90;;;9.90;95.43;101774.63;5143169;28;20511;-69
2023/04/18 01:00:15;;;;;;;11.00;6.13;;;9.90;99.90;;;9.86;95.49;101773.59;5149369;28;20050;-69
2023/04/18 01:02:48;;;;;;;12.23;6.57;;;9.90;99.90;;;9.84;95.57;101763.88;5149648;28;20047;-68
2023/04/18 01:05:21;;;;;;;15.48;7.72;;;9.90;99.90;;;9.82;95.68;101766.41;5148323;28;20418;-69
2023/04/18 01:07:57;;;;;;;13.48;8.07;;;9.90;99.90;;;9.79;95.33;101776.69;5143317;28;20050;-69
2023/04/18 01:10:30;;;;;;;12.60;8.10;;;9.80;99.90;;;9.72;95.54;101753.75;5142784;28;20047;-68
2023/04/18 01:13:12;;;;;;;11.13;7.05;;;9.80;99.90;;;9.67;95.50;101761.28;5149692;28;20043;-68
2023/04/18 01:15:47;;;;;;;10.85;6.50;;;9.80;99.90;;;9.62;95.68;101756.66;5143097;28;20049;-68
2023/04/18 01:18:19;;;;;;;12.13;7.28;;;9.70;99.90;;;9.60;96.15;101758.28;5142063;28;20043;-69
2023/04/18 01:20:53;;;;;;;15.63;7.93;;;9.70;99.90;;;9.57;95.84;101747.69;5149111;28;20046;-68
2023/04/18 01:23:26;;;;;;;13.45;7.38;;;9.70;99.90;;;9.52;95.88;101745.75;5142038;28;20047;-68
2023/04/18 01:25:59;;;;;;;16.05;8.05;;;9.70;99.90;;;9.51;96.09;101754.34;5149679;28;20050;-69
2023/04/18 01:28:36;;;;;;;14.10;7.50;;;9.60;99.90;;;9.48;96.15;101754.19;5141645;28;20127;-68
2023/04/18 01:31:08;;;;;;;12.65;6.97;;;9.60;99.90;;;9.45;96.18;101750.50;5142846;28;20118;-68
2023/04/18 01:33:42;;;;;;;12.93;7.13;;;9.60;99.90;;;9.41;96.44;101751.19;5142992;28;20123;-69
2023/04/18 01:36:14;;;;;;;12.98;6.03;;;9.60;99.90;;;9.42;96.44;101751.25;5141759;28;20377;-69
2023/04/18 01:38:46;;;;;;;14.23;7.68;;;9.50;99.90;;;9.39;96.67;101738.09;5142859;28;20050;-69
2023/04/18 01:41:20;;;;;;;13.32;6.80;;;9.50;99.90;;;9.33;96.92;101740.38;5146967;28;20051;-68
2023/04/18 01:43:53;;;;;;;13.98;6.88;;;9.50;99.90;;;9.32;97.19;101743.75;5142939;28;20043;-67
2023/04/18 01:46:25;;;;;;;13.32;7.05;;;9.40;99.90;;;9.33;97.06;101742.97;5141637;28;20051;-68
2023/04/18 01:48:59;;;;;;;13.73;7.45;;;9.40;99.90;;;9.31;97.00;101736.75;5142331;28;20047;-68
2023/04/18 01:51:31;;;;;;;13.00;7.18;;;9.40;99.90;;;9.28;97.18;101746.13;5141523;28;20039;-68
2023/04/18 01:54:03;;;;;;;13.07;7.00;;;9.40;99.90;;;9.23;97.25;101748.47;5141375;28;20043;-69
2023/04/18 01:56:37;;;;;;;13.20;6.93;;;9.30;99.90;;;9.20;97.39;101745.69;5141467;28;20050;-69
2023/04/18 01:59:09;;;;;;;12.60;6.57;;;9.30;99.90;;;9.20;97.46;101740.50;5141055;28;20070;-69
2023/04/18 02:01:41;;;;;;;12.18;6.93;;;9.30;99.90;;;9.20;97.92;101745.69;5149162;28;20050;-68
2023/04/18 02:04:14;;;;;;;9.50;5.50;;;9.30;99.90;;;9.20;97.96;101750.91;5151797;28;20634;-68
2023/04/18 02:06:46;;;;;;;9.30;5.38;;;9.30;99.90;;;9.20;98.47;101748.31;5169255;28;20106;-68
2023/04/18 02:09:18;;;;;;;9.23;4.63;;;9.20;99.90;;;9.17;98.75;101750.72;5144774;28;20057;-68
2023/04/18 02:11:54;;;;;;;8.90;4.93;;;9.20;99.90;;;9.12;99.47;101752.16;5154117;28;20054;-68
2023/04/18 02:14:28;;;;;;;9.00;4.50;;;9.10;99.90;;;9.07;100.00;101748.44;5145387;28;20393;-68
2023/04/18 02:17:00;;;;;;;10.70;5.55;;;9.10;99.90;;;9.01;100.00;101742.88;5144750;28;20058;-68
2023/04/18 02:19:32;;;;;;;9.27;4.95;;;9.00;99.90;;;8.96;100.00;101750.41;5152625;28;20047;-68
2023/04/18 02:22:04;;;;;;;8.13;4.85;;;9.00;99.90;;;8.90;100.00;101745.75;5152805;28;20491;-68
2023/04/18 02:24:36;;;;;;;9.15;5.20;;;8.90;99.90;;;8.85;100.00;101749.81;5153024;28;20043;-69
2023/04/18 02:27:10;;;;;;;8.35;5.00;;;8.90;99.90;;;8.78;100.00;101744.16;5161046;28;20130;-69
2023/04/18 02:29:42;;;;;;;8.35;4.85;;;8.80;99.90;;;8.69;100.00;101750.66;5153382;28;20053;-68
2023/04/18 02:32:15;;;;;;;10.20;5.70;;;8.70;99.90;;;8.61;100.00;101746.72;5146281;28;20130;-68
2023/04/18 02:34:49;;;;;;;9.77;5.80;;;8.60;99.90;;;8.54;100.00;101738.44;5154174;28;20054;-68
2023/04/18 02:37:21;;;;;;;9.25;5.32;;;8.60;99.90;;;8.46;100.00;101740.63;5151036;28;20051;-68
2023/04/18 02:39:54;;;;;;;10.45;5.57;;;8.50;99.90;;;8.39;100.00;101744.56;5144002;28;20518;-68
2023/04/18 02:42:27;;;;;;;10.60;5.82;;;8.40;99.90;;;8.30;100.00;101736.19;5152515;28;20053;-68
2023/04/18 02:44:59;;;;;;;8.70;5.25;;;8.30;99.90;;;8.25;100.00;101744.53;5147224;28;20061;-67
2023/04/18 02:47:32;;;;;;;10.38;5.32;;;8.30;99.90;;;8.17;100.00;101744.06;5149359;28;20089;-69
2023/04/18 02:50:05;;;;;;;10.05;5.53;;;8.20;99.90;;;8.10;100.00;101740.22;5147204;28;20196;-68
2023/04/18 02:52:38;;;;;;;9.82;5.90;;;8.20;99.90;;;8.06;100.00;101739.94;5148291;28;20043;-69
2023/04/18 02:55:13;;;;;;;10.82;5.43;;;8.10;99.90;;;8.00;100.00;101747.34;5156628;28;20061;-68
2023/04/18 02:57:49;;;;;;;;;;;8.00;99.90;;;7.94;100.00;101753.06;5147356;28;20074;-68
2023/04/18 03:00:49;;;;;;;9.98;6.10;;;8.00;99.90;;;7.86;100.00;101752.59;5147780;28;20298;-70
2023/04/18 03:03:33;;;;;;;11.80;6.07;;;7.90;99.90;;;7.80;100.00;101741.84;5193527;23;20046;-83
2023/04/18 03:06:31;;;;;;;11.30;6.10;;;7.90;99.90;;;7.74;100.00;101736.28;5178028;28;20046;-83
2023/04/18 03:09:06;;;;;;;11.73;6.10;;;7.80;99.90;;;7.71;100.00;101746.50;5179075;28;20039;-84
2023/04/18 03:11:41;;;;;;;;;;;7.80;99.90;;;7.68;100.00;101750.59;5195071;28;20057;-82
2023/04/18 03:14:16;;;;;;;11.25;6.20;;;7.70;99.90;;;7.62;100.00;101748.50;5163155;28;19929;-82
2023/04/18 03:16:55;;;;;;;10.85;5.97;;;7.70;99.90;;;7.59;100.00;101748.31;5173506;28;20047;-83
2023/04/18 03:19:31;;;;;;;11.77;6.53;;;7.60;99.90;;;7.55;100.00;101747.22;5157448;28;20114;-82
2023/04/18 03:22:09;;;;;;;10.18;6.13;;;7.60;99.90;;;7.50;100.00;101745.19;5150083;28;20046;-82
2023/04/18 03:24:47;;;;;;;10.40;6.10;;;7.60;99.90;;;7.49;100.00;101748.53;5174606;28;20043;-82
2023/04/18 03:27:20;;;;;;;11.32;6.50;;;7.60;99.90;;;7.45;100.00;101751.78;5158066;28;20051;-82
2023/04/18 03:29:55;;;;;;;11.52;6.07;;;7.50;99.90;;;7.42;100.00;101754.16;5150358;28;20327;-82
2023/04/18 03:32:28;;;;;;;11.07;6.55;;;7.50;99.90;;;7.40;100.00;101750.59;5160390;28;20061;-83
2023/04/18 03:35:00;;;;;;;9.93;5.90;;;7.50;99.90;;;7.37;100.00;101752.97;5157976;28;20066;-84
2023/04/18 03:37:32;;;;;;;12.40;6.60;;;7.40;99.90;;;7.34;100.00;101754.56;5157995;28;20043;-86
2023/04/18 03:40:08;;;;;;;10.98;6.28;;;7.40;99.90;;;7.37;100.00;101761.69;5181578;28;20043;-85
2023/04/18 03:42:41;;;;;;;;;;;7.40;99.90;;;7.42;100.00;101756.75;5174528;28;20090;-81
2023/04/18 03:45:17;;;;;;;11.32;6.15;;;7.40;99.90;;;7.43;100.00;101763.72;5158366;28;19922;-83
2023/04/18 03:47:51;;;;;;;9.82;5.45;;;7.50;99.90;;;7.43;100.00;101758.53;5158798;28;20050;-82
2023/04/18 03:50:25;;;;;;;12.43;6.00;;;7.50;99.90;;;7.40;100.00;101754.06;5153389;28;20046;-84
2023/04/18 03:52:59;;;;;;;11.50;5.93;;;7.50;99.90;;;7.39;100.00;101764.34;5172550;28;20053;-82
2023/04/18 03:55:34;;;;;;;11.90;6.18;;;7.40;99.90;;;7.34;100.00;101757.16;5151556;28;20044;-81
2023/04/18 03:58:07;;;;;;;12.63;5.93;;;7.40;99.90;;;7.37;100.00;101760.75;5165322;28;20528;-83
2023/04/18 04:00:41;;;;;;;10.63;5.82;;;7.40;99.90;;;7.38;100.00;101767.75;5158408;28;20039;-83
2023/04/18 04:03:16;;;;;;;10.75;5.88;;;7.40;99.90;;;7.37;100.00;101765.94;5174252;28;20077;-85
2023/04/18 04:05:52;;;;;;;10.82;5.90;;;7.40;99.90;;;7.35;100.00;101774.53;5175338;28;20085;-86
2023/04/18 04:08:25;;;;;;;11.82;5.95;;;7.40;99.90;;;7.34;100.00;101772.72;5157531;28;20510;-82
2023/04/18 04:10:58;;;;;;;11.27;6.60;;;7.40;99.90;;;7.34;100.00;101780.50;5173868;28;20106;-84
2023/04/18 04:13:30;;;;;;;10.57;6.03;;;7.40;99.90;;;7.35;100.00;101771.03;5175264;28;20074;-83
2023/04/18 04:16:06;;;;;;;12.18;6.55;;;7.40;99.90;;;7.37;100.00;101776.31;5157510;28;20468;-83
2023/04/18 04:18:38;;;;;;;14.48;7.45;;;7.40;99.90;;;7.39;100.00;101773.03;5158009;28;20102;-82
2023/04/18 04:21:11;;;;;;;14.05;7.28;;;7.50;99.90;;;7.49;100.00;101772.78;5158099;28;20085;-83
2023/04/18 04:23:55;;;;;;;13.52;6.22;;;7.60;99.90;;;7.57;100.00;101775.91;5174484;28;20073;-86
2023/04/18 04:26:35;;;;;;;13.35;6.72;;;7.60;99.90;;;7.60;100.00;101781.25;5159437;28;20046;-83
2023/04/18 04:29:20;;;;;;;14.10;7.47;;;7.70;99.90;;;7.59;100.00;101785.56;5157968;28;20047;-82
2023/04/18 04:31:55;;;;;;;15.18;8.20;;;7.70;99.90;;;7.64;100.00;101791.03;5161267;28;20073;-85
2023/04/18 04:34:35;;;;;;;13.82;7.30;;;7.80;99.90;;;7.68;100.00;101784.31;5159295;28;20097;-83
2023/04/18 04:37:12;;;;;;;14.80;7.55;;;7.80;99.90;;;7.70;100.00;101791.41;5159030;28;20039;-85
2023/04/18 04:39:54;;;;;;;15.93;7.38;;;7.90;99.90;;;7.74;100.00;101795.09;5164164;28;20046;-84
2023/04/18 04:42:39;;;;;;;13.38;7.72;;;7.90;99.90;;;7.76;100.00;101791.81;5155410;28;20078;-84
2023/04/18 04:45:18;;;;;;;13.65;7.25;;;7.90;99.90;;;7.75;100.00;101795.16;5169475;28;20111;-82
2023/04/18 04:47:52;;;;;;;13.25;6.97;;;7.90;99.90;;;7.79;100.00;101791.09;5176100;28;20066;-84
2023/04/18 04:50:26;;;;;;;;;;;8.00;99.90;;;7.75;100.00;101792.56;5170217;28;20039;-82
2023/04/18 04:52:58;;;;;;;12.90;7.00;;;8.00;99.90;;;7.84;100.00;101800.94;5180641;28;19906;-88
2023/04/18 04:55:31;;;;;;;16.58;7.85;;;8.00;99.90;;;7.82;100.00;101805.16;5180643;28;20042;-82
2023/04/18 04:58:03;;;;;;;14.05;7.90;;;8.10;99.90;;;7.79;100.00;101799.75;5158813;28;20050;-82
2023/04/18 05:00:56;;;;;;;16.73;8.27;;;8.10;99.90;;;7.86;100.00;101817.50;5159992;28;20047;-84
2023/04/18 05:03:30;;;;;;;13.27;7.30;;;8.10;99.90;;;7.96;100.00;101812.91;5174541;28;20051;-82
2023/04/18 05:06:04;;;;;;;14.00;7.40;;;8.20;99.90;;;8.11;100.00;101813.81;5172222;28;20050;-83
2023/04/18 05:08:36;;;;;;;15.27;7.70;;;8.30;99.90;;;8.22;100.00;101817.09;5153357;28;20566;-82
2023/04/18 05:11:08;;;;;;;15.82;7.80;;;8.40;99.90;;;8.32;100.00;101817.72;5170165;28;20508;-83
2023/04/18 05:13:41;;;;;;;16.05;8.23;;;8.50;99.90;;;8.46;100.00;101809.88;5170036;28;20057;-82
2023/04/18 05:16:13;;;;;;;17.83;7.45;;;8.70;99.90;;;8.64;100.00;101818.75;5168783;28;20467;-82
2023/04/18 05:18:46;;;;;;;15.52;7.63;;;8.80;99.90;;;8.78;100.00;101823.06;5170275;28;20077;-84
2023/04/18 05:21:18;;;;;;;15.45;8.20;;;9.00;99.90;;;8.93;100.00;101815.25;5161769;28;20078;-82
2023/04/18 05:23:51;;;;;;;12.40;7.55;;;9.10;99.90;;;9.07;100.00;101823.88;5160423;28;20047;-83
2023/04/18 05:26:26;;;;;;;14.20;7.38;;;9.20;99.90;;;9.18;100.00;101825.34;5159729;28;20054;-84
2023/04/18 05:28:58;;;;;;;13.52;7.28;;;9.40;99.90;;;9.20;100.00;101829.84;5174099;28;20055;-83
2023/04/18 05:31:31;;;;;;;12.85;7.38;;;9.50;99.90;;;9.28;100.00;101843.28;5175123;28;20070;-83
2023/04/18 05:34:04;;;;;;;14.30;7.25;;;9.50;99.90;;;9.20;99.65;101828.97;5170633;28;20046;-84
2023/04/18 05:36:37;;;;;;;15.55;7.65;;;9.50;99.90;;;9.17;99.69;101833.97;5157471;28;20046;-84
2023/04/18 05:39:09;;;;;;;12.90;6.88;;;9.50;99.90;;;9.16;99.30;101842.59;5175354;28;20047;-82
2023/04/18 05:41:41;;;;;;;12.80;6.95;;;9.40;99.90;;;9.16;99.70;101837.38;5164770;28;20054;-84
2023/04/18 05:44:14;;;;;;;13.48;7.35;;;9.40;99.90;;;9.14;99.73;101839.91;5164065;28;20298;-81
2023/04/18 05:46:50;;;;;;;17.63;7.90;;;9.40;99.90;;;9.12;99.89;101835.41;5168038;28;20227;-81
2023/04/18 05:49:23;;;;;;;14.18;7.25;;;9.40;99.90;;;9.25;99.82;101837.88;5171549;28;20074;-82
2023/04/18 05:51:56;;;;;;;13.82;7.28;;;9.50;99.90;;;9.39;99.94;101842.19;5179543;28;20054;-82
2023/04/18 05:54:28;;;;;;;15.05;7.65;;;9.60;99.90;;;9.63;98.15;101846.94;5175371;28;20129;-83
2023/04/18 05:57:01;;;;;;;13.95;7.38;;;9.80;99.90;;;9.69;96.99;101847.28;5165746;28;20043;-84
2023/04/18 05:59:33;;;;;;;14.15;7.47;;;9.90;99.90;;;9.88;97.02;101841.38;5168391;28;20043;-84
2023/04/18 06:02:11;;;;;;;16.60;7.43;;;10.00;99.90;;;9.94;96.11;101845.22;5178704;28;20057;-88
2023/04/18 06:04:45;;;;;;;14.10;7.38;;;10.10;99.90;;;10.32;95.22;101846.41;5170350;28;20539;-82
2023/04/18 06:07:17;;;;;;;14.00;6.72;;;10.50;99.90;;;10.64;93.86;101847.16;5151138;28;20386;-81
2023/04/18 06:09:49;;;;;;;14.90;6.82;;;10.80;99.90;;;10.78;92.03;101849.66;5151466;28;20140;-83
2023/04/18 06:12:21;;;;;;;12.98;6.30;;;10.90;99.90;;;11.08;92.52;101850.31;5168078;28;20070;-80
2023/04/18 06:14:53;;;;;;;12.07;6.70;;;11.10;99.90;;;11.53;90.44;101858.53;5171692;28;20035;-86
2023/04/18 06:17:25;;;;;;;12.85;6.93;;;11.40;99.90;;;11.71;88.59;101853.31;5161916;28;20049;-82
2023/04/18 06:19:59;;;;;;;12.40;6.57;;;11.60;99.90;;;11.77;87.72;101856.22;5169348;28;20050;-81
2023/04/18 06:22:32;;;;;;;13.20;6.40;;;11.80;99.90;;;12.06;87.35;101852.38;5162757;28;20105;-83
2023/04/18 06:25:07;;;;;;;10.55;6.15;;;12.00;99.90;;;12.46;86.83;101848.91;5160131;28;20420;-82
2023/04/18 06:27:39;;;;;;;11.32;6.82;;;12.20;99.90;;;12.91;85.02;101849.06;5163488;28;20085;-82
2023/04/18 06:30:12;;;;;;;10.20;5.68;;;12.60;99.90;;;13.20;83.26;101851.22;5162868;28;20054;-81
2023/04/18 06:32:44;;;;;;;12.93;6.30;;;13.00;99.30;;;13.41;81.86;101852.91;5167201;28;20054;-80
2023/04/18 06:35:18;;;;;;;10.70;5.80;;;13.20;98.30;;;13.66;80.54;101853.06;5151091;28;20043;-79
2023/04/18 06:37:50;;;;;;;11.85;6.15;;;13.40;97.70;;;13.84;79.55;101859.00;5149885;28;20046;-79
2023/04/18 06:40:22;;;;;;;11.57;5.03;;;13.60;96.80;;;14.03;78.79;101857.97;5142268;28;20488;-81
2023/04/18 06:42:55;;;;;;;10.63;6.30;;;13.80;96.30;;;14.03;77.63;101859.72;5149635;28;20053;-80
2023/04/18 06:45:27;;;;;;;11.38;6.10;;;13.80;95.20;;;13.81;75.57;101856.25;5166533;28;20517;-81
2023/04/18 06:47:59;;;;;;;11.52;6.15;;;13.80;93.40;;;13.46;75.97;101861.84;5152206;28;20047;-81
2023/04/18 06:50:33;;;;;;;11.70;5.88;;;13.50;93.30;;;13.40;76.14;101864.22;5154767;28;20047;-82
2023/04/18 06:53:05;;;;;;;10.35;5.30;;;13.50;93.20;;;13.24;77.55;101866.25;5156510;28;20121;-82
2023/04/18 06:55:37;;;;;;;10.93;5.90;;;13.30;93.80;;;13.25;77.59;101862.78;5153955;28;20050;-80
2023/04/18 06:58:12;;;;;;;11.02;5.72;;;13.30;94.00;;;13.41;77.46;101868.63;5149650;28;20057;-81
2023/04/18 07:00:46;;;;;;;8.93;4.50;;;13.40;94.20;;;13.76;78.65;101865.69;5149364;28;20047;-81
2023/04/18 07:03:18;;;;;;;10.32;5.50;;;13.60;95.20;;;13.99;75.84;101870.91;5150514;28;20047;-81
2023/04/18 07:05:52;;;;;;;10.45;5.57;;;13.90;93.30;;;13.94;76.35;101870.72;5164845;28;20046;-79
2023/04/18 07:08:24;;;;;;;10.20;5.18;;;13.90;93.50;;;14.03;76.60;101878.06;5141738;28;20046;-79
2023/04/18 07:10:56;;;;;;;8.70;4.50;;;14.00;93.30;;;14.19;77.21;101867.31;5142883;28;20085;-79
2023/04/18 07:13:28;;;;;;;9.68;4.72;;;14.20;93.60;;;14.34;75.88;101881.00;5149434;28;20063;-80
2023/04/18 07:16:00;;;;;;;8.18;4.47;;;14.40;93.20;;;14.29;75.90;101881.66;5155657;28;20035;-82
2023/04/18 07:18:33;;;;;;;10.85;4.80;;;14.30;92.70;;;14.41;75.46;101882.13;5155568;28;20053;-83
2023/04/18 07:21:07;;;;;;;8.05;4.82;;;14.50;92.30;;;14.09;73.74;101891.41;5153702;28;20045;-81
2023/04/18 07:23:39;;;;;;;9.02;4.70;;;14.20;90.90;;;13.47;74.44;101884.59;5149024;28;20039;-79
2023/04/18 07:26:12;;;;;;;10.40;5.30;;;13.70;90.80;;;12.95;76.51;101893.78;5149548;28;20050;-80
2023/04/18 07:28:44;;;;;;;9.57;4.70;;;13.30;91.70;;;12.59;77.78;101885.25;5151435;28;20049;-80
2023/04/18 07:31:18;;;;;;;7.60;4.43;;;12.80;92.50;;;12.47;78.83;101892.56;5165177;28;20053;-79
2023/04/18 07:33:50;;;;;;;8.70;4.15;;;12.70;93.60;;;12.41;79.11;101897.50;5149388;28;20074;-79
2023/04/18 07:36:24;;;;;;;8.95;4.97;;;12.50;93.80;;;12.36;79.26;101896.41;5151154;28;20110;-83
2023/04/18 07:38:57;;;;;;;8.55;4.55;;;12.50;94.30;;;12.27;80.20;101898.59;5159946;28;20060;-78
2023/04/18 07:41:29;;;;;;;8.55;4.82;;;12.30;94.80;;;12.07;80.38;101900.31;5154002;28;20038;-81
2023/04/18 07:44:01;;;;;;;8.57;4.75;;;12.20;94.90;;;12.01;81.70;101906.16;5139210;28;20050;-81
2023/04/18 07:46:33;;;;;;;8.90;4.65;;;12.10;95.90;;;11.97;81.10;101904.19;5150481;28;20081;-81
2023/04/18 07:49:05;;;;;;;11.05;5.30;;;12.10;95.50;;;11.84;81.61;101907.06;5152971;28;20739;-80
2023/04/18 07:51:39;;;;;;;7.68;4.25;;;12.00;95.80;;;11.87;82.08;101902.88;5152273;28;20073;-81
2023/04/18 07:54:11;;;;;;;9.68;4.80;;;12.00;96.60;;;11.96;82.55;101902.41;5153032;28;20050;-82
2023/04/18 07:56:43;;;;;;;8.93;4.50;;;12.00;96.50;;;12.10;82.41;101900.44;5153929;28;20057;-81
2023/04/18 07:59:15;;;;;;;8.82;4.40;;;12.10;96.70;;;12.40;81.90;101898.34;5152820;28;20508;-81
2023/04/18 08:01:47;;;;;;;7.00;3.42;;;12.20;96.70;;;12.75;81.38;101895.53;5151954;28;20035;-80
2023/04/18 08:04:19;;;;;;;7.53;4.47;;;12.50;96.70;;;13.39;80.02;101893.88;5151363;28;20049;-81
2023/04/18 08:06:53;;;;;;;8.93;3.97;;;12.90;96.70;;;14.18;77.77;101891.75;5150574;28;20043;-80
2023/04/18 08:09:25;;;;;;;7.30;4.10;;;13.50;95.80;;;14.71;75.82;101894.56;5164826;28;20054;-80
2023/04/18 08:11:58;;;;;;;8.15;4.13;;;13.90;94.50;;;14.86;72.75;101901.22;5149693;28;20382;-80
2023/04/18 08:14:31;;;;;;;7.85;4.43;;;14.20;92.30;;;14.90;73.50;101897.88;5150461;28;20513;-80
2023/04/18 08:17:03;;;;;;;5.95;3.60;;;14.40;92.40;;;14.91;73.15;101902.28;5149829;28;20031;-79
2023/04/18 08:19:35;;;;;;;8.68;3.83;;;14.40;92.00;;;14.75;73.23;101900.00;5150429;28;20053;-80
2023/04/18 08:22:10;;;;;;;8.73;4.30;;;14.40;91.50;;;14.23;72.90;101902.41;5149177;28;20049;-80
2023/04/18 08:24:42;;;;;;;7.13;4.22;;;14.10;90.90;;;13.74;74.26;101906.66;5151531;28;20118;-80
2023/04/18 08:27:14;;;;;;;7.55;3.50;;;13.70;91.30;;;13.88;75.83;101898.44;5151062;28;20117;-80
2023/04/18 08:29:46;;;;;;;8.02;4.38;;;13.70;92.40;;;14.17;73.81;101904.81;5151647;28;20509;-81
2023/04/18 08:32:18;;;;;;;10.80;4.70;;;13.80;91.90;;;14.63;73.00;101904.78;5167154;28;20042;-80
2023/04/18 08:34:50;;;;;;;5.97;3.30;;;13.90;91.70;;;14.57;72.82;101915.06;5149836;28;20035;-81
2023/04/18 08:37:26;;;;;;;7.90;3.92;;;14.00;91.50;;;13.92;73.32;101916.06;5148296;28;20496;-80
2023/04/18 08:39:58;;;;;;;8.00;4.50;;;13.70;91.20;;;13.67;75.15;101915.09;5148821;28;20046;-79
2023/04/18 08:42:30;;;;;;;8.00;4.38;;;13.50;91.90;;;13.96;75.09;101918.00;5149794;28;20048;-81
2023/04/18 08:45:03;;;;;;;8.07;4.32;;;13.60;92.20;;;13.94;75.57;101909.16;5149504;28;20043;-81
2023/04/18 08:47:35;;;;;;;9.68;3.63;;;13.60;92.70;;;14.00;75.04;101915.53;5151354;28;20456;-80
2023/04/18 08:50:09;;;;;;;7.45;4.05;;;13.70;92.20;;;13.69;75.48;101913.47;5151488;28;20051;-81
2023/04/18 08:52:47;;;;;;;8.57;4.35;;;13.50;92.20;;;13.57;75.93;101916.47;5150210;28;20073;-81
2023/04/18 08:55:21;;;;;;;9.02;4.72;;;13.40;92.40;;;13.51;76.17;101915.34;5151556;28;20042;-80
2023/04/18 08:57:54;;;;;;;9.02;4.85;;;13.40;92.60;;;13.12;77.43;101907.59;5151568;28;20085;-82
2023/04/18 09:00:28;;;;;;;7.65;4.15;;;13.10;92.90;;;13.00;78.71;101912.31;5148954;28;20102;-81
2023/04/18 09:05:39;;;;;;;8.82;4.65;;;13.00;93.60;;;12.96;78.76;101907.75;5137239;28;20102;-51
2023/04/18 09:08:23;;;;;;;8.88;4.70;;;12.90;93.80;;;12.87;79.68;101904.75;5123743;28;20043;-53
2023/04/18 09:10:56;;;;;;;9.35;4.18;;;12.80;94.30;;;12.81;80.52;101908.00;5129745;28;20443;-50
2023/04/18 09:13:45;;;;;;;7.32;4.07;;;12.80;94.90;;;12.79;80.93;101900.91;5135468;28;20079;-51
2023/04/18 09:16:19;;;;;;;8.30;3.97;;;12.80;95.10;;;12.93;82.06;101910.25;5120537;28;20139;-53
2023/04/18 09:19:11;;;;;;;5.72;3.35;;;12.90;96.00;;;13.04;81.48;101903.75;5122477;28;20363;-52
2023/04/18 09:21:45;;;;;;;8.27;4.28;;;12.90;95.70;;;13.08;80.03;101905.66;5134896;28;20054;-52
2023/04/18 09:24:22;;;;;;;8.18;4.03;;;13.00;95.10;;;13.02;80.21;101910.63;5123912;28;20047;-53
2023/04/18 09:26:58;;;;;;;7.00;3.60;;;13.00;95.00;;;13.08;80.21;101902.16;5125263;28;20047;-52
2023/04/18 09:29:46;;;;;;;7.60;4.20;;;13.00;95.20;;;13.07;80.30;101909.09;5122402;28;20047;-51
2023/04/18 09:32:27;;;;;;;7.85;3.92;;;13.00;95.20;;;13.10;80.51;101904.00;5122254;28;20070;-52
2023/04/18 09:35:04;;;;;;;7.63;4.10;;;13.00;95.30;;;13.03;79.36;101908.06;5122458;28;20086;-51
2023/04/18 09:37:36;;;;;;;6.85;3.95;;;13.00;94.80;;;12.93;79.77;101899.78;5122482;28;20046;-50
2023/04/18 09:40:18;;;;;;;7.40;4.00;;;12.90;94.70;;;12.94;79.97;101891.09;5121995;28;20050;-51
2023/04/18 09:42:53;;;;;;;7.15;4.22;;;12.90;94.90;;;13.15;80.05;101902.47;5122418;28;20445;-52
2023/04/18 09:45:25;;;;;;;7.03;3.92;;;13.00;95.20;;;13.65;79.83;101890.56;5121938;28;20046;-51
2023/04/18 09:47:57;;;;;;;7.35;3.85;;;13.30;95.40;;;13.96;76.72;101904.88;5122059;28;20055;-53
2023/04/18 09:50:30;;;;;;;8.45;3.50;;;13.60;93.90;;;13.98;79.05;101891.00;5122227;28;20047;-51
2023/04/18 09:53:02;;;;;;;8.10;3.55;;;13.70;94.60;;;14.10;78.10;101891.47;5122151;28;20043;-51
2023/04/18 09:55:37;;;;;;;6.32;3.20;;;13.90;94.30;;;14.06;76.21;101888.66;5131307;28;20066;-52
2023/04/18 09:58:09;;;;;;;;;;;13.90;92.90;;;13.99;75.53;101890.16;5122715;28;20050;-52
2023/04/18 10:00:41;;;;;;;5.68;3.45;;;13.90;92.50;;;14.18;78.37;101883.00;5121834;28;19926;-52
2023/04/18 10:03:14;;;;;;;5.97;3.58;;;14.00;94.40;;;14.40;76.37;101886.44;5121937;28;20047;-57
2023/04/18 10:05:48;;;;;;;7.18;3.30;;;14.20;93.10;;;14.62;78.12;101882.03;5121910;28;20400;-53
2023/04/18 10:08:20;;;;;;;7.75;3.97;;;14.40;94.20;;;14.99;74.71;101883.28;5121960;28;20059;-58
2023/04/18 10:10:57;;;;;;;9.43;3.67;;;14.70;92.20;;;15.56;75.57;101883.41;5121796;28;20047;-55
2023/04/18 10:13:30;;;;;;;5.38;3.50;;;15.10;93.20;;;16.00;74.04;101872.56;5122456;28;20518;-57
2023/04/18 10:16:03;;;;;;;7.05;3.22;;;15.50;92.30;;;15.99;72.37;101883.94;5137719;28;20039;-56
2023/04/18 10:18:36;;;;;;;6.65;3.35;;;15.70;91.10;;;15.78;72.84;101885.91;5122164;28;20039;-55
2023/04/18 10:21:09;;;;;;;6.22;3.05;;;15.60;90.80;;;15.69;73.49;101876.00;5123081;28;20080;-56
2023/04/18 10:23:41;;;;;;;5.72;3.25;;;15.60;90.80;;;15.72;73.87;101875.22;5135195;28;20047;-56
2023/04/18 10:26:15;;;;;;;6.32;3.35;;;15.50;90.80;;;16.00;72.64;101869.94;5128861;28;20053;-57
2023/04/18 10:28:53;;;;;;;7.72;3.72;;;15.80;90.30;;;16.33;71.63;101886.66;5134239;28;20053;-56
2023/04/18 10:31:27;;;;;;;6.75;3.90;;;16.00;90.00;;;16.38;70.48;101875.41;5141064;28;20043;-55
2023/04/18 10:34:00;;;;;;;6.28;3.45;;;16.10;87.80;;;16.25;70.45;101875.91;5125683;28;20040;-56
2023/04/18 10:36:33;;;;;;;8.50;4.47;;;16.00;87.20;;;15.97;70.77;101875.13;5140785;28;20046;-52
2023/04/18 10:39:22;;;;;;;7.55;3.92;;;15.80;86.80;;;15.59;72.16;101873.03;5132860;28;20051;-53
2023/04/18 10:41:55;;;;;;;7.82;3.78;;;15.50;88.00;;;15.29;73.47;101867.66;5144521;28;20034;-51
2023/04/18 10:44:27;;;;;;;8.75;4.20;;;15.30;89.50;;;15.16;74.25;101861.13;5125610;28;20051;-51
2023/04/18 10:47:22;;;;;;;7.07;3.67;;;15.10;90.20;;;15.25;74.84;101860.50;5140349;28;20046;-51